Time;durP1;ratioP1;P1;durP2;ratioP2;P2;SDS_P1;SDS_P2;PMS_P1;PMS_P2;Temp;Humidity;BMP_temperature;BMP_pressure;BME280_temperature;BME280_humidity;BME280_pressure;Samples;Min_cycle;Max_cycle;Signal;HPM_P1;HPM_P2
2023/07/06 00:00:19;;;;;;;2.43;1.60;;;18.30;77.20;17.40;96637.00;;;;5010574;28;20921;-85
2023/07/06 00:02:46;;;;;;;1.47;1.37;;;18.30;77.20;17.30;96640.00;;;;5012331;28;20256;-85
2023/07/06 00:05:13;;;;;;;1.40;1.30;;;18.30;77.20;17.30;96640.00;;;;5007447;28;20238;-85
2023/07/06 00:10:12;;;;;;;1.60;1.50;;;18.20;78.20;17.20;96630.00;;;;4974455;28;20220;-79
2023/07/06 00:12:40;;;;;;;2.13;1.47;;;18.10;77.50;17.20;96627.00;;;;4967205;28;20214;-79
2023/07/06 00:15:10;;;;;;;1.50;1.40;;;18.10;77.70;17.20;96643.00;;;;4961393;28;20314;-79
2023/07/06 00:17:38;;;;;;;1.83;1.60;;;18.10;77.80;17.20;96641.00;;;;4955852;28;20215;-79
2023/07/06 00:20:10;;;;;;;2.00;1.80;;;18.00;77.80;17.10;96642.00;;;;4960780;28;20290;-79
2023/07/06 00:22:37;;;;;;;3.20;1.80;;;18.00;78.10;17.10;96649.00;;;;4974806;28;20207;-78
2023/07/06 00:25:07;;;;;;;2.33;1.70;;;18.00;78.20;17.10;96647.00;;;;4968697;28;20228;-78
2023/07/06 00:27:36;;;;;;;1.70;1.60;;;18.00;78.40;17.10;96642.00;;;;4965534;28;20243;-78
2023/07/06 00:30:18;;;;;;;1.60;1.50;;;18.00;78.40;17.10;96659.00;;;;4970961;28;20210;-79
2023/07/06 00:32:47;;;;;;;1.63;1.53;;;17.90;78.40;17.10;96656.00;;;;4982761;28;20599;-79
2023/07/06 00:35:15;;;;;;;1.60;1.50;;;18.00;78.60;17.10;96655.00;;;;4982995;28;20290;-80
2023/07/06 00:37:43;;;;;;;1.60;1.50;;;18.00;78.80;17.10;96660.00;;;;4966832;28;20200;-79
2023/07/06 00:40:14;;;;;;;1.50;1.40;;;17.90;78.80;17.10;96647.00;;;;4967558;28;20199;-79
2023/07/06 00:42:43;;;;;;;1.57;1.47;;;17.90;78.80;17.10;96648.00;;;;4972644;28;20274;-79
2023/07/06 00:45:11;;;;;;;1.77;1.67;;;17.90;78.90;17.10;96660.00;;;;4965115;28;20624;-79
2023/07/06 00:47:46;;;;;;;2.03;1.57;;;17.90;79.00;17.10;96645.00;;;;4972474;28;20730;-78
2023/07/06 00:50:19;;;;;;;1.43;1.33;;;18.00;79.00;17.10;96655.00;;;;4966411;28;20204;-79
2023/07/06 00:52:52;;;;;;;1.90;1.60;;;18.00;79.10;17.10;96643.00;;;;4952343;28;20196;-79
2023/07/06 00:55:25;;;;;;;3.30;1.70;;;18.00;79.20;17.10;96637.00;;;;4968646;28;20290;-79
2023/07/06 00:58:01;;;;;;;1.40;1.30;;;17.90;79.10;17.10;96645.00;;;;4948484;28;20212;-79
2023/07/06 01:00:29;;;;;;;1.67;1.57;;;18.00;79.20;17.10;96641.00;;;;4971513;28;20623;-79
2023/07/06 01:03:01;;;;;;;2.40;1.70;;;18.00;79.40;17.10;96631.00;;;;4953521;28;20196;-78
2023/07/06 01:05:30;;;;;;;1.70;1.60;;;18.00;79.40;17.10;96633.00;;;;4952980;28;20231;-79
2023/07/06 01:08:08;;;;;;;2.00;1.60;;;18.00;79.50;17.10;96625.00;;;;4963592;28;20239;-79
2023/07/06 01:10:38;;;;;;;1.80;1.70;;;18.00;79.40;17.20;96621.00;;;;4963399;28;20657;-79
2023/07/06 01:13:07;;;;;;;1.73;1.53;;;18.00;79.60;17.20;96624.00;;;;4961555;28;20204;-79
2023/07/06 01:15:43;;;;;;;1.93;1.67;;;18.00;79.60;17.20;96624.00;;;;4966160;28;20310;-79
2023/07/06 01:18:24;;;;;;;2.17;1.40;;;18.00;79.50;17.20;96618.00;;;;4974360;28;20238;-79
2023/07/06 01:21:09;;;;;;;2.20;2.00;;;18.00;79.40;17.20;96621.00;;;;4965205;28;20225;-78
2023/07/06 01:24:29;;;;;;;1.30;1.20;;;18.00;80.20;17.20;96622.00;;;;4974077;28;20199;-79
2023/07/06 01:27:38;;;;;;;1.63;1.53;;;18.00;79.30;17.20;96622.00;;;;4956865;28;20234;-78
2023/07/06 01:30:48;;;;;;;1.87;1.27;;;18.00;79.60;17.20;96619.00;;;;4954436;28;20206;-79
2023/07/06 01:33:24;;;;;;;1.47;1.37;;;18.00;79.70;17.20;96620.00;;;;4956733;28;20207;-79
2023/07/06 01:36:01;;;;;;;2.47;1.57;;;18.10;80.20;17.20;96611.00;;;;4966976;28;20219;-79
2023/07/06 01:38:28;;;;;;;2.77;1.80;;;18.10;80.30;17.30;96614.00;;;;4961793;28;20217;-79
2023/07/06 01:40:55;;;;;;;2.13;1.80;;;18.10;80.40;17.30;96609.00;;;;4947209;29;20202;-78
2023/07/06 01:43:22;;;;;;;1.90;1.80;;;18.10;80.20;17.30;96609.00;;;;4961036;28;20700;-79
2023/07/06 01:45:50;;;;;;;1.90;1.67;;;18.10;80.00;17.30;96615.00;;;;4959107;28;20234;-78
2023/07/06 01:48:20;;;;;;;1.43;1.23;;;18.10;80.00;17.30;96616.00;;;;4972450;28;20298;-79
2023/07/06 01:51:01;;;;;;;1.70;1.60;;;18.10;79.80;17.30;96626.00;;;;4968829;28;20255;-79
2023/07/06 01:53:42;;;;;;;1.93;1.30;;;18.10;79.70;17.30;96614.00;;;;4959823;28;20303;-79
2023/07/06 01:56:19;;;;;;;2.03;1.50;;;18.10;79.80;17.30;96617.00;;;;4966512;28;20223;-79
2023/07/06 01:58:58;;;;;;;4.07;1.70;;;18.10;79.70;17.30;96625.00;;;;4951661;28;20218;-79
2023/07/06 02:01:32;;;;;;;1.50;1.40;;;18.10;79.60;17.30;96621.00;;;;4958959;28;20692;-79
2023/07/06 02:04:04;;;;;;;1.60;1.50;;;18.10;79.60;17.20;96620.00;;;;4954964;28;20282;-79
2023/07/06 02:06:31;;;;;;;2.40;1.50;;;18.10;79.10;17.20;96620.00;;;;4962841;28;20237;-79
2023/07/06 02:08:58;;;;;;;3.30;1.60;;;18.10;79.00;17.20;96617.00;;;;4973402;28;20211;-79
2023/07/06 02:11:26;;;;;;;1.57;1.40;;;18.10;79.00;17.20;96618.00;;;;4964830;28;20208;-79
2023/07/06 02:13:53;;;;;;;1.70;1.60;;;18.10;79.10;17.20;96617.00;;;;4961258;28;20195;-79
2023/07/06 02:16:21;;;;;;;1.83;1.50;;;18.10;79.10;17.20;96621.00;;;;4961739;28;20231;-79
2023/07/06 02:18:49;;;;;;;1.90;1.63;;;18.00;79.10;17.20;96621.00;;;;4972640;28;20294;-79
2023/07/06 02:21:17;;;;;;;2.07;1.50;;;18.00;79.10;17.20;96618.00;;;;4960316;28;20291;-79
2023/07/06 02:23:45;;;;;;;1.53;1.43;;;18.00;79.10;17.20;96617.00;;;;4960696;28;20756;-79
2023/07/06 02:26:12;;;;;;;1.67;1.50;;;18.00;79.30;17.20;96623.00;;;;4976254;28;20233;-79
2023/07/06 02:28:42;;;;;;;1.53;1.43;;;18.00;79.30;17.10;96622.00;;;;4976271;28;20203;-79
2023/07/06 02:31:09;;;;;;;1.57;1.47;;;18.00;79.20;17.10;96623.00;;;;4971125;28;20203;-79
2023/07/06 02:33:36;;;;;;;1.70;1.60;;;18.00;78.80;17.10;96626.00;;;;4973447;28;20204;-78
2023/07/06 02:36:04;;;;;;;2.23;1.67;;;18.00;78.40;17.10;96624.00;;;;4969273;28;20225;-78
2023/07/06 02:38:33;;;;;;;2.63;1.57;;;17.90;78.10;17.00;96624.00;;;;4969248;28;20239;-79
2023/07/06 02:41:04;;;;;;;2.60;1.93;;;17.90;78.00;17.00;96626.00;;;;4977084;28;20206;-78
2023/07/06 02:43:31;;;;;;;1.53;1.43;;;17.90;78.00;17.00;96618.00;;;;4948297;28;20225;-79
2023/07/06 02:46:00;;;;;;;1.60;1.50;;;17.90;77.90;16.90;96617.00;;;;4971514;28;20259;-78
2023/07/06 02:48:27;;;;;;;1.60;1.50;;;17.80;78.10;16.90;96616.00;;;;4964649;28;20196;-78
2023/07/06 02:50:54;;;;;;;1.80;1.50;;;17.80;78.20;16.90;96610.00;;;;4967646;28;20661;-79
2023/07/06 02:53:22;;;;;;;3.23;1.50;;;17.80;78.30;16.90;96615.00;;;;4960868;28;20204;-78
2023/07/06 02:55:51;;;;;;;1.70;1.53;;;17.70;78.50;16.80;96608.00;;;;4964320;28;20220;-80
2023/07/06 02:58:19;;;;;;;3.40;1.60;;;17.70;78.60;16.80;96599.00;;;;4958234;28;20200;-78
2023/07/06 03:00:49;;;;;;;1.97;1.47;;;17.70;78.70;16.80;96613.00;;;;4975411;28;20216;-78
2023/07/06 03:03:16;;;;;;;2.03;1.60;;;17.70;78.50;16.80;96614.00;;;;4973100;28;20204;-78
2023/07/06 03:05:46;;;;;;;1.90;1.50;;;17.70;78.40;16.70;96613.00;;;;4977239;28;20234;-79
2023/07/06 03:08:13;;;;;;;1.87;1.70;;;17.70;78.20;16.70;96622.00;;;;4967033;28;20222;-79
2023/07/06 03:10:41;;;;;;;1.70;1.60;;;17.60;78.10;16.70;96618.00;;;;4975471;28;20223;-79
2023/07/06 03:13:10;;;;;;;1.63;1.23;;;17.60;78.10;16.60;96615.00;;;;4967315;28;20200;-79
2023/07/06 03:15:40;;;;;;;1.90;1.50;;;17.60;77.80;16.60;96615.00;;;;4957951;28;20226;-79
2023/07/06 03:18:08;;;;;;;2.20;1.63;;;17.60;77.70;16.60;96612.00;;;;4970174;28;20286;-79
2023/07/06 03:20:36;;;;;;;3.60;1.60;;;17.50;77.60;16.50;96614.00;;;;4965977;28;20203;-79
2023/07/06 03:23:04;;;;;;;2.60;1.90;;;17.50;78.40;16.50;96615.00;;;;4972027;28;20681;-79
2023/07/06 03:25:33;;;;;;;1.90;1.80;;;17.50;77.70;16.40;96619.00;;;;4965309;28;20299;-79
2023/07/06 03:28:00;;;;;;;1.63;1.47;;;17.40;77.50;16.40;96616.00;;;;4967100;28;20279;-79
2023/07/06 03:30:31;;;;;;;4.07;1.57;;;17.40;77.50;16.40;96611.00;;;;4967366;28;20197;-78
2023/07/06 03:32:59;;;;;;;1.73;1.63;;;17.30;77.50;16.30;96609.00;;;;4964088;28;20283;-79
2023/07/06 03:35:28;;;;;;;2.17;1.33;;;17.30;77.80;16.30;96612.00;;;;4962797;28;20251;-79
2023/07/06 03:37:58;;;;;;;1.97;1.77;;;17.30;77.80;16.30;96604.00;;;;4971809;28;20237;-78
2023/07/06 03:40:29;;;;;;;3.30;2.17;;;17.30;77.90;16.30;96612.00;;;;4966434;28;20207;-79
2023/07/06 03:42:57;;;;;;;1.80;1.70;;;17.30;78.10;16.30;96608.00;;;;4962889;28;20229;-79
2023/07/06 03:45:25;;;;;;;1.67;1.50;;;17.20;78.20;16.20;96622.00;;;;4962119;28;20328;-79
2023/07/06 03:47:54;;;;;;;2.10;1.70;;;17.20;77.80;16.20;96624.00;;;;4961529;28;20225;-79
2023/07/06 03:50:21;;;;;;;1.67;1.57;;;17.20;77.30;16.20;96620.00;;;;4959345;28;20215;-79
2023/07/06 03:52:49;;;;;;;1.70;1.60;;;17.10;77.40;16.20;96622.00;;;;4955824;28;20664;-79
2023/07/06 03:55:22;;;;;;;1.60;1.50;;;17.10;77.60;16.10;96615.00;;;;4964823;28;20211;-79
2023/07/06 03:57:49;;;;;;;1.73;1.63;;;17.10;77.80;16.10;96623.00;;;;4972591;28;20691;-79
2023/07/06 04:00:22;;;;;;;1.63;1.50;;;17.10;77.80;16.00;96617.00;;;;4965752;28;20199;-79
2023/07/06 04:02:51;;;;;;;1.57;1.40;;;17.00;77.60;16.00;96605.00;;;;4966395;28;20204;-79
2023/07/06 04:05:23;;;;;;;1.60;1.50;;;17.00;77.90;16.00;96608.00;;;;4967570;28;20574;-78
2023/07/06 04:07:53;;;;;;;1.70;1.60;;;17.00;78.00;16.00;96617.00;;;;4964652;28;20311;-78
2023/07/06 04:10:22;;;;;;;1.73;1.60;;;17.00;78.10;16.00;96616.00;;;;4966885;28;20688;-78
2023/07/06 04:12:50;;;;;;;2.70;2.10;;;16.90;78.10;15.90;96610.00;;;;4959035;28;20199;-78
2023/07/06 04:15:19;;;;;;;2.27;1.50;;;16.90;78.20;15.90;96613.00;;;;4966328;28;20199;-78
2023/07/06 04:17:48;;;;;;;1.63;1.53;;;16.90;78.30;15.90;96614.00;;;;4967903;28;20215;-79
2023/07/06 04:20:22;;;;;;;1.77;1.53;;;16.90;78.50;15.90;96613.00;;;;4972357;28;20215;-78
2023/07/06 04:22:54;;;;;;;2.07;1.90;;;16.90;78.50;15.90;96622.00;;;;4967697;28;20205;-80
2023/07/06 04:25:26;;;;;;;2.27;2.00;;;16.90;78.70;15.90;96614.00;;;;4969082;28;20254;-79
2023/07/06 04:27:54;;;;;;;2.63;2.10;;;16.90;79.10;15.90;96615.00;;;;4956094;28;20227;-80
2023/07/06 04:30:22;;;;;;;1.90;1.80;;;16.90;79.30;16.00;96621.00;;;;4962558;28;20568;-80
2023/07/06 04:32:51;;;;;;;1.97;1.80;;;16.90;79.40;16.00;96625.00;;;;4964117;28;20224;-80
2023/07/06 04:35:23;;;;;;;2.10;1.90;;;16.90;79.30;16.00;96613.00;;;;4967749;28;20614;-79
2023/07/06 04:37:52;;;;;;;2.70;1.83;;;16.90;79.20;16.00;96621.00;;;;4973471;28;20693;-79
2023/07/06 04:40:21;;;;;;;2.90;1.80;;;17.00;79.20;16.10;96622.00;;;;4972234;28;20196;-79
2023/07/06 04:42:52;;;;;;;2.20;2.00;;;17.00;79.20;16.10;96627.00;;;;4956491;28;20208;-78
2023/07/06 04:45:21;;;;;;;2.27;2.07;;;17.00;79.30;16.10;96636.00;;;;4959892;28;20287;-79
2023/07/06 04:47:51;;;;;;;3.00;1.80;;;17.00;79.30;16.10;96639.00;;;;4958955;28;20575;-79
2023/07/06 04:50:23;;;;;;;3.30;2.10;;;17.00;80.00;16.10;96631.00;;;;4965275;28;20199;-80
2023/07/06 04:52:53;;;;;;;2.50;2.30;;;17.10;79.50;16.20;96631.00;;;;4964961;28;20207;-80
2023/07/06 04:55:23;;;;;;;2.20;1.93;;;17.10;79.70;16.20;96635.00;;;;4959888;28;20296;-79
2023/07/06 04:57:52;;;;;;;2.07;1.97;;;17.10;79.80;16.20;96628.00;;;;4963286;28;20211;-79
2023/07/06 05:00:24;;;;;;;2.00;1.90;;;17.10;79.90;16.30;96640.00;;;;4972851;28;20731;-80
2023/07/06 05:02:53;;;;;;;2.47;2.23;;;17.20;80.10;16.30;96639.00;;;;4959178;28;20191;-80
2023/07/06 05:05:23;;;;;;;2.17;1.90;;;17.20;80.10;16.30;96642.00;;;;4972905;28;20338;-79
2023/07/06 05:07:51;;;;;;;2.30;2.10;;;17.20;80.20;16.40;96644.00;;;;4954489;28;20234;-80
2023/07/06 05:10:19;;;;;;;2.00;1.90;;;17.30;80.30;16.40;96640.00;;;;4970707;28;20203;-80
2023/07/06 05:12:46;;;;;;;3.37;1.67;;;17.30;80.40;16.50;96641.00;;;;4964437;28;20244;-80
2023/07/06 05:15:15;;;;;;;2.90;2.07;;;17.30;80.50;16.50;96647.00;;;;4944747;28;20203;-79
2023/07/06 05:17:42;;;;;;;2.20;2.00;;;17.40;81.40;16.60;96645.00;;;;4973514;28;20509;-80
2023/07/06 05:20:14;;;;;;;2.40;2.20;;;17.40;80.90;16.60;96643.00;;;;4975202;28;20197;-79
2023/07/06 05:22:43;;;;;;;2.50;2.30;;;17.50;81.00;16.70;96639.00;;;;4972463;28;20207;-79
2023/07/06 05:25:11;;;;;;;2.87;2.47;;;17.50;81.10;16.80;96636.00;;;;4928761;29;20207;-79
2023/07/06 05:27:39;;;;;;;2.60;2.40;;;17.60;81.30;16.90;96634.00;;;;4964271;28;20310;-79
2023/07/06 05:30:08;;;;;;;2.17;2.07;;;17.70;81.40;16.90;96636.00;;;;4973439;28;20659;-79
2023/07/06 05:32:36;;;;;;;2.47;2.27;;;17.70;81.60;17.00;96637.00;;;;4954874;28;20236;-79
2023/07/06 05:35:04;;;;;;;1.90;1.80;;;17.80;81.70;17.10;96645.00;;;;4964818;28;20229;-79
2023/07/06 05:37:33;;;;;;;2.27;2.07;;;17.90;81.80;17.10;96645.00;;;;4957711;28;20955;-82
2023/07/06 05:40:04;;;;;;;2.60;2.40;;;17.90;81.90;17.20;96645.00;;;;4961273;28;20664;-80
2023/07/06 05:42:32;;;;;;;3.50;2.60;;;18.00;81.90;17.30;96647.00;;;;4978945;28;20283;-81
2023/07/06 05:44:59;;;;;;;3.43;2.90;;;18.10;82.10;17.30;96635.00;;;;4981501;28;20204;-80
2023/07/06 05:47:27;;;;;;;3.20;2.90;;;18.10;82.10;17.40;96638.00;;;;4970597;28;20319;-79
2023/07/06 05:49:55;;;;;;;3.13;2.93;;;18.10;82.10;17.40;96648.00;;;;4978304;28;20200;-80
2023/07/06 05:52:22;;;;;;;3.40;3.10;;;18.20;82.20;17.50;96651.00;;;;4970176;28;20203;-80
2023/07/06 05:54:50;;;;;;;3.70;2.73;;;18.30;82.20;17.60;96649.00;;;;4966988;28;20203;-79
2023/07/06 05:57:19;;;;;;;2.93;2.73;;;18.30;82.20;17.60;96648.00;;;;4954517;28;20222;-79
2023/07/06 05:59:48;;;;;;;3.63;3.33;;;18.40;82.20;17.70;96651.00;;;;4964700;28;20218;-80
2023/07/06 06:02:20;;;;;;;3.67;3.30;;;18.50;82.30;17.80;96657.00;;;;4963375;28;20191;-80
2023/07/06 06:04:48;;;;;;;3.20;2.90;;;18.50;82.40;17.90;96658.00;;;;4962474;28;20278;-79
2023/07/06 06:07:18;;;;;;;5.70;4.83;;;18.60;82.60;17.90;96658.00;;;;4965215;28;20223;-79
2023/07/06 06:09:45;;;;;;;4.93;4.50;;;18.60;82.60;18.00;96660.00;;;;4965343;28;20200;-79
2023/07/06 06:12:18;;;;;;;5.30;4.80;;;18.70;82.70;18.10;96662.00;;;;4970388;28;20741;-79
2023/07/06 06:14:48;;;;;;;6.80;5.20;;;18.80;82.80;18.10;96666.00;;;;4966974;28;20716;-79
2023/07/06 06:17:18;;;;;;;5.20;4.80;;;18.90;82.70;18.20;96668.00;;;;4968978;28;20732;-79
2023/07/06 06:19:46;;;;;;;5.43;5.03;;;18.90;82.80;18.30;96668.00;;;;4967336;28;20222;-80
2023/07/06 06:22:16;;;;;;;5.50;5.10;;;19.00;82.90;18.40;96672.00;;;;4966808;28;20205;-80
2023/07/06 06:24:44;;;;;;;6.67;5.73;;;19.10;82.90;18.50;96668.00;;;;4962725;28;20369;-79
2023/07/06 06:27:14;;;;;;;4.67;4.20;;;19.10;83.00;18.50;96672.00;;;;4944898;28;20231;-79
2023/07/06 06:29:42;;;;;;;3.93;3.30;;;19.20;83.10;18.60;96678.00;;;;4961779;28;20230;-79
2023/07/06 06:32:13;;;;;;;3.40;3.07;;;19.30;83.20;18.70;96673.00;;;;4962365;28;20200;-79
2023/07/06 06:34:41;;;;;;;3.43;3.20;;;19.40;83.20;18.80;96667.00;;;;4962983;28;20665;-80
2023/07/06 06:37:10;;;;;;;4.00;3.43;;;19.40;83.30;18.90;96672.00;;;;4962640;28;20226;-79
2023/07/06 06:39:39;;;;;;;7.83;4.10;;;19.50;83.50;19.00;96671.00;;;;4963925;28;20200;-79
2023/07/06 06:42:07;;;;;;;5.37;3.93;;;19.60;83.30;19.10;96678.00;;;;4967085;28;20204;-79
2023/07/06 06:44:35;;;;;;;4.47;3.67;;;19.70;83.30;19.20;96681.00;;;;4956077;28;20204;-79
2023/07/06 06:47:04;;;;;;;4.00;3.63;;;19.80;83.40;19.30;96677.00;;;;4947146;28;20236;-79
2023/07/06 06:49:34;;;;;;;3.90;3.50;;;19.90;83.30;19.40;96678.00;;;;4955662;28;20215;-80
2023/07/06 06:52:02;;;;;;;3.23;2.97;;;19.90;83.10;19.50;96689.00;;;;4969507;28;20263;-79
2023/07/06 06:54:30;;;;;;;4.63;3.20;;;20.00;82.30;19.50;96687.00;;;;4971767;28;20203;-79
2023/07/06 06:56:58;;;;;;;2.60;2.40;;;20.10;82.10;19.60;96690.00;;;;4959626;28;20815;-79
2023/07/06 06:59:27;;;;;;;3.20;2.77;;;20.20;81.90;19.70;96687.00;;;;4960207;28;20255;-79
2023/07/06 07:01:54;;;;;;;3.80;2.97;;;20.30;81.70;19.80;96695.00;;;;4956006;28;20205;-79
2023/07/06 07:04:21;;;;;;;3.00;2.70;;;20.40;82.00;19.90;96690.00;;;;4970975;28;20206;-79
2023/07/06 07:06:50;;;;;;;3.40;3.10;;;20.50;81.40;20.00;96686.00;;;;4963314;28;20222;-80
2023/07/06 07:09:18;;;;;;;3.10;2.90;;;20.60;80.40;20.10;96683.00;;;;4974820;28;20215;-80
2023/07/06 07:11:47;;;;;;;3.27;2.97;;;20.60;80.60;20.20;96692.00;;;;4961111;28;20287;-80
2023/07/06 07:14:15;;;;;;;3.23;2.93;;;20.80;81.80;20.40;96684.00;;;;4975487;28;20203;-79
2023/07/06 07:16:43;;;;;;;3.43;3.13;;;20.90;81.60;20.50;96688.00;;;;4959077;28;20279;-80
2023/07/06 07:19:10;;;;;;;3.33;2.90;;;21.00;81.70;20.60;96689.00;;;;4957466;28;20227;-79
2023/07/06 07:21:38;;;;;;;2.70;2.50;;;21.10;81.90;20.80;96691.00;;;;4971580;28;20203;-79
2023/07/06 07:24:08;;;;;;;3.17;2.80;;;21.20;81.70;20.90;96688.00;;;;4969572;28;20260;-79
2023/07/06 07:26:36;;;;;;;3.97;3.07;;;21.40;81.10;21.00;96689.00;;;;4967404;28;20256;-79
2023/07/06 07:29:03;;;;;;;7.10;3.13;;;21.50;81.20;21.20;96688.00;;;;4970533;28;20605;-79
2023/07/06 07:31:32;;;;;;;3.90;3.00;;;21.60;81.70;21.30;96688.00;;;;4971317;28;20200;-80
2023/07/06 07:33:59;;;;;;;3.10;2.90;;;21.80;80.80;21.40;96689.00;;;;4968248;28;20290;-79
2023/07/06 07:36:27;;;;;;;2.70;2.33;;;21.90;80.50;21.60;96684.00;;;;4976564;28;20222;-79
2023/07/06 07:38:56;;;;;;;3.03;2.30;;;22.00;79.40;21.70;96686.00;;;;4975675;28;20656;-80
2023/07/06 07:41:27;;;;;;;3.03;2.73;;;22.20;79.30;21.80;96686.00;;;;4969320;28;20673;-80
2023/07/06 07:43:54;;;;;;;2.70;2.50;;;22.30;78.10;21.90;96691.00;;;;4969624;28;20202;-79
2023/07/06 07:46:22;;;;;;;2.27;1.73;;;22.40;78.40;22.00;96690.00;;;;4969111;28;20601;-79
2023/07/06 07:48:53;;;;;;;2.97;1.90;;;22.50;78.30;22.10;96686.00;;;;4963816;28;20227;-80
2023/07/06 07:51:24;;;;;;;1.80;1.53;;;22.60;77.10;22.20;96696.00;;;;4965030;28;20246;-79
2023/07/06 07:53:54;;;;;;;2.23;1.53;;;22.70;74.80;22.30;96693.00;;;;4976106;28;20203;-79
2023/07/06 07:56:25;;;;;;;1.63;1.30;;;22.80;73.20;22.40;96696.00;;;;4968592;28;20594;-80
2023/07/06 07:58:52;;;;;;;1.67;1.57;;;22.90;74.00;22.50;96695.00;;;;4968071;28;20621;-80
2023/07/06 08:01:23;;;;;;;1.60;1.50;;;23.00;74.00;22.60;96687.00;;;;4975451;28;20207;-80
2023/07/06 08:03:51;;;;;;;1.43;1.33;;;23.10;74.10;22.70;96701.00;;;;4971971;28;20207;-80
2023/07/06 08:06:20;;;;;;;2.30;1.57;;;23.20;71.70;22.90;96693.00;;;;4956362;28;20296;-79
2023/07/06 08:08:48;;;;;;;1.43;1.33;;;23.30;70.60;23.00;96688.00;;;;4965283;28;20228;-78
2023/07/06 08:11:20;;;;;;;1.60;1.40;;;23.40;70.80;23.10;96697.00;;;;4949670;28;20239;-79
2023/07/06 08:13:50;;;;;;;1.20;1.10;;;23.50;70.20;23.20;96696.00;;;;4964866;28;20197;-79
2023/07/06 08:16:17;;;;;;;1.30;1.20;;;23.60;70.10;23.40;96701.00;;;;4964837;28;20294;-78
2023/07/06 08:18:46;;;;;;;1.40;1.30;;;23.80;70.60;23.50;96704.00;;;;4973931;28;20242;-79
2023/07/06 08:21:13;;;;;;;1.40;1.07;;;23.90;69.90;23.60;96703.00;;;;4960724;28;20291;-79
2023/07/06 08:23:50;;;;;;;1.20;1.10;;;24.00;68.40;23.80;96700.00;;;;4962883;28;20204;-79
2023/07/06 08:26:18;;;;;;;1.43;1.30;;;24.20;65.10;24.00;96702.00;;;;4975230;28;20229;-79
2023/07/06 08:28:48;;;;;;;1.70;1.13;;;24.30;68.00;24.10;96701.00;;;;4962842;28;20231;-78
2023/07/06 08:31:19;;;;;;;1.80;1.17;;;24.40;67.30;24.20;96707.00;;;;4958149;28;20200;-78
2023/07/06 08:33:47;;;;;;;1.53;1.23;;;24.60;66.40;24.40;96697.00;;;;4963550;28;20664;-79
2023/07/06 08:36:18;;;;;;;1.70;1.23;;;24.70;64.80;24.50;96705.00;;;;4961189;28;20227;-79
2023/07/06 08:38:46;;;;;;;1.10;1.00;;;24.80;65.70;24.60;96703.00;;;;4962911;28;20211;-78
2023/07/06 08:41:29;;;;;;;1.40;1.20;;;25.00;65.10;24.70;96711.00;;;;4955524;28;20208;-78
2023/07/06 08:44:00;;;;;;;1.63;1.20;;;25.10;61.90;24.90;96705.00;;;;4959361;28;20335;-79
2023/07/06 08:46:34;;;;;;;1.10;0.80;;;25.20;64.90;25.00;96709.00;;;;4973075;28;20233;-79
2023/07/06 08:49:02;;;;;;;2.50;1.10;;;25.40;63.80;25.20;96703.00;;;;4967355;28;20262;-78
2023/07/06 08:51:37;;;;;;;2.27;1.10;;;25.50;63.20;25.30;96704.00;;;;4966191;28;20227;-80
2023/07/06 08:54:16;;;;;;;1.57;1.20;;;25.60;62.50;25.50;96700.00;;;;4955188;28;20207;-78
2023/07/06 08:56:46;;;;;;;1.77;1.37;;;25.80;60.70;25.60;96704.00;;;;4955041;28;20307;-79
2023/07/06 08:59:23;;;;;;;1.43;1.17;;;25.90;62.60;25.70;96699.00;;;;4954063;28;20215;-79
2023/07/06 09:01:52;;;;;;;1.70;1.30;;;26.00;60.80;25.90;96705.00;;;;4965165;28;20227;-79
2023/07/06 09:04:20;;;;;;;3.77;1.10;;;26.20;61.40;26.00;96699.00;;;;4954151;28;20340;-78
2023/07/06 09:06:54;;;;;;;2.27;1.07;;;26.30;60.80;26.10;96699.00;;;;4971572;28;20233;-78
2023/07/06 09:09:21;;;;;;;1.23;1.00;;;26.40;60.40;26.20;96698.00;;;;4973604;28;20238;-79
2023/07/06 09:11:52;;;;;;;1.30;1.20;;;26.50;59.80;26.30;96696.00;;;;4969806;28;20748;-80
2023/07/06 09:14:27;;;;;;;1.03;0.90;;;26.60;59.20;26.40;96701.00;;;;4952378;28;20204;-79
2023/07/06 09:16:55;;;;;;;3.07;1.40;;;26.70;58.90;26.50;96699.00;;;;4953305;28;20654;-79
2023/07/06 09:19:25;;;;;;;1.50;1.13;;;26.80;58.70;26.60;96699.00;;;;4961703;28;20215;-79
2023/07/06 09:21:55;;;;;;;1.67;1.30;;;26.90;58.80;26.80;96701.00;;;;4972993;28;20199;-78
2023/07/06 09:24:27;;;;;;;0.95;0.95;;;27.10;58.40;26.90;96696.00;;;;4965499;28;20211;-80
2023/07/06 09:26:58;;;;;;;2.33;1.23;;;27.20;59.00;27.10;96701.00;;;;4962572;28;20689;-79
2023/07/06 09:29:32;;;;;;;1.20;1.10;;;27.30;59.30;27.20;96699.00;;;;4954853;28;20216;-79
2023/07/06 09:32:15;;;;;;;1.63;1.53;;;27.50;56.90;27.40;96705.00;;;;4966505;28;20294;-79
2023/07/06 09:34:44;;;;;;;1.50;1.30;;;27.70;56.40;27.60;96702.00;;;;4964942;28;20204;-79
2023/07/06 09:37:15;;;;;;;1.50;1.40;;;27.90;57.70;27.70;96693.00;;;;4973868;28;20246;-79
2023/07/06 09:39:58;;;;;;;1.60;1.48;;;28.00;57.30;27.90;96700.00;;;;4972107;28;20202;-79
2023/07/06 09:42:28;;;;;;;4.25;1.67;;;28.20;56.90;28.00;96701.00;;;;4974356;28;20222;-79
2023/07/06 09:44:57;;;;;;;1.65;1.45;;;28.40;56.10;28.20;96703.00;;;;4966241;28;20219;-79
2023/07/06 09:47:24;;;;;;;17.27;1.80;;;28.50;56.10;28.30;96699.00;;;;4972762;28;20226;-79
2023/07/06 09:49:56;;;;;;;1.50;1.40;;;28.70;56.60;28.50;96701.00;;;;4969435;28;20223;-79
2023/07/06 09:52:25;;;;;;;1.42;1.20;;;28.90;55.40;28.70;96695.00;;;;4961827;28;20204;-79
2023/07/06 09:55:03;;;;;;;1.80;1.33;;;29.10;56.30;28.90;96702.00;;;;4964554;28;20293;-79
2023/07/06 09:57:36;;;;;;;1.25;1.15;;;29.30;55.70;29.10;96696.00;;;;4956685;28;20204;-80
2023/07/06 10:00:15;;;;;;;1.67;1.23;;;29.60;55.40;29.20;96687.00;;;;4960202;28;20194;-80
2023/07/06 10:02:59;;;;;;;1.50;1.40;;;29.90;54.80;29.30;96694.00;;;;4954205;28;20207;-79
2023/07/06 10:05:42;;;;;;;1.40;1.27;;;30.00;52.90;29.50;96695.00;;;;4970054;28;20838;-79
2023/07/06 10:08:13;;;;;;;2.08;1.52;;;30.20;52.70;29.60;96692.00;;;;4951581;28;20219;-79
2023/07/06 10:11:05;;;;;;;1.90;1.60;;;30.40;53.00;29.70;96695.00;;;;4961017;28;20192;-79
2023/07/06 10:13:44;;;;;;;3.08;1.52;;;30.60;50.70;29.80;96693.00;;;;4954012;28;20294;-79
2023/07/06 10:16:28;;;;;;;3.55;1.80;;;30.70;50.80;29.90;96697.00;;;;4954221;28;20227;-79
2023/07/06 10:19:07;;;;;;;2.10;1.50;;;30.90;51.10;30.00;96692.00;;;;4953899;29;20210;-79
2023/07/06 10:21:43;;;;;;;1.90;1.80;;;30.90;51.10;30.00;96690.00;;;;4969514;28;20199;-80
2023/07/06 10:24:28;;;;;;;2.15;1.70;;;31.00;50.80;30.10;96692.00;;;;4960229;28;20230;-78
2023/07/06 10:27:01;;;;;;;1.48;1.35;;;31.10;51.20;30.20;96692.00;;;;4954682;28;20219;-79
2023/07/06 10:29:37;;;;;;;3.15;2.00;;;31.20;51.70;30.30;96692.00;;;;4962515;28;20215;-79
2023/07/06 10:32:11;;;;;;;1.67;1.58;;;31.30;51.10;30.40;96685.00;;;;4965745;28;20652;-79
2023/07/06 10:34:45;;;;;;;1.38;1.27;;;31.40;50.90;30.60;96689.00;;;;4955458;28;20204;-79
2023/07/06 10:37:18;;;;;;;1.90;1.80;;;31.50;50.60;30.70;96695.00;;;;4963230;28;20744;-80
2023/07/06 10:40:17;;;;;;;1.70;1.60;;;31.70;51.00;30.90;96696.00;;;;4961985;28;20204;-79
2023/07/06 10:42:52;;;;;;;1.92;1.80;;;31.90;49.00;31.00;96684.00;;;;4958998;28;20200;-79
2023/07/06 10:45:39;;;;;;;1.63;1.52;;;32.00;50.40;31.20;96692.00;;;;4962448;28;20204;-80
2023/07/06 10:48:17;;;;;;;3.83;1.80;;;32.10;49.40;31.30;96694.00;;;;4975530;28;20195;-79
2023/07/06 10:50:51;;;;;;;2.65;1.63;;;32.20;47.40;31.40;96701.00;;;;4973278;28;20230;-79
2023/07/06 10:53:34;;;;;;;1.50;1.40;;;32.30;49.40;31.50;96699.00;;;;4964996;28;20588;-78
2023/07/06 10:56:17;;;;;;;2.20;1.50;;;32.30;49.50;31.60;96689.00;;;;4979287;28;20223;-79
2023/07/06 10:58:55;;;;;;;4.43;1.35;;;32.40;48.50;31.70;96682.00;;;;4965126;28;20207;-78
2023/07/06 11:01:29;;;;;;;1.80;1.70;;;32.40;48.00;31.70;96693.00;;;;4965835;28;20202;-78
2023/07/06 11:04:00;;;;;;;2.47;1.40;;;32.40;48.50;31.60;96691.00;;;;4965818;28;20703;-78
2023/07/06 11:06:54;;;;;;;2.75;1.70;;;32.30;48.10;31.60;96696.00;;;;4973508;28;20227;-78
2023/07/06 11:09:23;;;;;;;1.90;1.80;;;32.30;46.40;31.50;96695.00;;;;4963680;28;20599;-79
2023/07/06 11:12:19;;;;;;;2.40;1.70;;;32.20;47.80;31.30;96690.00;;;;4966228;28;20282;-79
2023/07/06 11:14:48;;;;;;;2.03;1.85;;;32.00;46.10;31.20;96687.00;;;;4962724;28;20829;-79